Terminal Aerodrome Forecast
Issued by NWS Wilmington, OH

Current Version | Previous Version | Graphics & Text | Print | Product List | Glossary On
Versions: 1 2 3 4 5 6 7 8 9 10 11 12 13 14 15 16 17
273
FTUS41 KILN 102103 AAA
TAFCMH
TAF AMD
KCMH 102103Z 1021/1118 19011G19KT P6SM OVC090
     FM102200 20010KT P6SM SCT100
     FM110000 22008KT P6SM BKN035
      TEMPO 1102/1106 BKN025
     FM110600 28005KT P6SM SCT020
     FM110900 VRB03KT P6SM SCT020
     FM111500 19005KT P6SM BKN100=

USA.gov is the U.S. government's official web portal to all federal, state and local government web resources and services.